createdAt,value
2023-04-07T00:00:10.764Z,5.13
2023-04-07T00:02:38.654Z,7.57
2023-04-07T00:05:07.295Z,4.83
2023-04-07T00:07:42.058Z,5.70
2023-04-07T00:10:17.993Z,7.30
2023-04-07T00:12:45.917Z,4.50
2023-04-07T00:15:13.914Z,4.53
2023-04-07T00:17:41.781Z,5.40
2023-04-07T00:20:10.233Z,5.50
2023-04-07T00:22:38.402Z,4.40
2023-04-07T00:25:07.679Z,4.93
2023-04-07T00:27:37.036Z,4.73
2023-04-07T00:30:05.720Z,4.43
2023-04-07T00:32:35.267Z,4.90
2023-04-07T00:35:03.854Z,7.63
2023-04-07T00:37:31.894Z,5.67
2023-04-07T00:39:59.893Z,5.00
2023-04-07T00:42:27.887Z,5.40
2023-04-07T00:44:57.160Z,4.53
2023-04-07T00:47:25.587Z,4.80
2023-04-07T00:49:53.611Z,4.80
2023-04-07T00:52:27.306Z,4.40
2023-04-07T00:54:55.361Z,7.23
2023-04-07T00:57:23.732Z,5.40
2023-04-07T00:59:52.180Z,4.53
2023-04-07T01:02:31.854Z,6.03
2023-04-07T01:05:10.760Z,4.63
2023-04-07T01:07:45.594Z,4.87
2023-04-07T01:10:20.518Z,5.03
2023-04-07T01:12:54.579Z,5.03
2023-04-07T01:15:25.519Z,5.07
2023-04-07T01:18:11.859Z,4.93
2023-04-07T01:20:41.184Z,6.47
2023-04-07T01:23:09.484Z,4.77
2023-04-07T01:25:55.266Z,5.63
2023-04-07T01:28:56.421Z,4.80
2023-04-07T01:31:27.735Z,7.87
2023-04-07T01:33:57.462Z,4.07
2023-04-07T01:36:28.530Z,4.67
2023-04-07T01:38:57.290Z,6.07
2023-04-07T01:41:26.497Z,7.17
2023-04-07T01:43:55.838Z,7.90
2023-04-07T01:46:26.087Z,9.60
2023-04-07T01:48:54.503Z,7.07
2023-04-07T01:51:25.057Z,7.47
2023-04-07T01:53:54.158Z,11.13
2023-04-07T01:56:22.320Z,8.47
2023-04-07T01:58:50.338Z,9.13
2023-04-07T02:01:18.328Z,7.90
2023-04-07T02:03:54.300Z,7.60
2023-04-07T02:06:28.770Z,9.50
2023-04-07T02:09:01.877Z,8.07
2023-04-07T02:11:32.718Z,11.93
2023-04-07T02:14:03.900Z,8.70
2023-04-07T02:16:32.838Z,8.70
2023-04-07T02:19:03.307Z,8.40
2023-04-07T02:21:34.433Z,8.20
2023-04-07T02:24:02.761Z,9.77
2023-04-07T02:26:35.633Z,6.90
2023-04-07T02:29:04.005Z,8.43
2023-04-07T02:31:32.078Z,8.07
2023-04-07T02:34:01.429Z,10.23
2023-04-07T02:36:29.274Z,8.03
2023-04-07T02:38:57.295Z,8.30
2023-04-07T02:41:26.297Z,8.47
2023-04-07T02:43:54.413Z,7.60
2023-04-07T02:46:22.623Z,7.93
2023-04-07T02:48:50.666Z,7.33
2023-04-07T02:51:19.987Z,10.57
2023-04-07T02:53:47.873Z,9.60
2023-04-07T02:56:16.735Z,8.30
2023-04-07T02:58:44.688Z,10.30
2023-04-07T03:01:12.681Z,8.43
2023-04-07T03:03:42.423Z,8.00
2023-04-07T03:06:10.440Z,7.97
2023-04-07T03:08:39.711Z,8.43
2023-04-07T03:11:07.567Z,8.07
2023-04-07T03:13:35.847Z,9.30
2023-04-07T03:16:03.820Z,7.27
2023-04-07T03:18:31.862Z,6.83
2023-04-07T03:20:59.689Z,8.17
2023-04-07T03:23:29.515Z,6.47
2023-04-07T03:25:59.017Z,6.03
2023-04-07T03:28:26.886Z,5.13
2023-04-07T03:30:54.797Z,6.00
2023-04-07T03:33:22.716Z,4.70
2023-04-07T03:35:50.561Z,4.67
2023-04-07T03:38:18.420Z,4.30
2023-04-07T03:40:46.442Z,4.20
2023-04-07T03:43:16.334Z,4.07
2023-04-07T03:45:44.506Z,4.03
2023-04-07T03:48:12.825Z,4.17
2023-04-07T03:50:41.029Z,4.53
2023-04-07T03:53:09.518Z,3.73
2023-04-07T03:55:37.910Z,4.47
2023-04-07T03:58:05.944Z,5.40
2023-04-07T04:00:35.481Z,4.50
2023-04-07T04:03:04.136Z,4.33
2023-04-07T04:05:32.144Z,3.80
2023-04-07T04:08:00.334Z,4.20
2023-04-07T04:10:40.355Z,3.50
2023-04-07T04:13:08.256Z,5.73
2023-04-07T04:15:38.896Z,6.50
2023-04-07T04:18:07.443Z,7.43
2023-04-07T04:20:35.590Z,8.50
2023-04-07T04:23:03.631Z,7.13
2023-04-07T04:25:31.633Z,10.47
2023-04-07T04:28:00.869Z,10.10
2023-04-07T04:30:28.945Z,8.13
2023-04-07T04:32:58.677Z,8.40
2023-04-07T04:35:27.319Z,9.07
2023-04-07T04:37:55.536Z,11.87
2023-04-07T04:40:23.513Z,10.50
2023-04-07T04:42:51.464Z,8.87
2023-04-07T04:45:19.604Z,12.70
2023-04-07T04:47:47.586Z,11.13
2023-04-07T04:50:16.885Z,11.20
2023-04-07T04:52:44.803Z,10.00
2023-04-07T04:55:14.505Z,12.17
2023-04-07T04:57:42.605Z,9.03
2023-04-07T05:00:11.788Z,22.00
2023-04-07T05:02:39.791Z,10.60
2023-04-07T05:05:08.673Z,9.23
2023-04-07T05:07:40.308Z,10.73
2023-04-07T05:10:09.412Z,10.57
2023-04-07T05:12:37.794Z,12.57
2023-04-07T05:15:06.848Z,9.10
2023-04-07T05:17:34.815Z,9.77
2023-04-07T05:20:03.361Z,9.23
2023-04-07T05:22:31.515Z,9.80
2023-04-07T05:25:00.814Z,9.97
2023-04-07T05:27:28.768Z,10.00
2023-04-07T05:29:56.987Z,7.93
2023-04-07T05:32:24.879Z,10.47
2023-04-07T05:34:52.837Z,9.73
2023-04-07T05:37:20.775Z,9.53
2023-04-07T05:39:48.643Z,9.93
2023-04-07T05:42:17.870Z,11.13
2023-04-07T05:44:45.759Z,9.23
2023-04-07T05:47:13.658Z,8.53
2023-04-07T05:49:46.174Z,5.97
2023-04-07T05:52:14.153Z,7.73
2023-04-07T05:54:45.502Z,7.00
2023-04-07T05:57:13.461Z,10.03
2023-04-07T05:59:42.722Z,9.17
2023-04-07T06:02:10.905Z,7.93
2023-04-07T06:04:39.609Z,12.97
2023-04-07T06:07:07.890Z,9.23
2023-04-07T06:09:35.873Z,10.30
2023-04-07T06:12:05.168Z,9.37
2023-04-07T06:14:33.070Z,8.40
2023-04-07T06:17:02.504Z,12.30
2023-04-07T06:19:30.496Z,12.13
2023-04-07T06:21:58.402Z,8.50
2023-04-07T06:24:26.311Z,12.17
2023-04-07T06:26:54.252Z,14.03
2023-04-07T06:29:22.526Z,19.33
2023-04-07T06:31:50.512Z,15.57
2023-04-07T06:34:19.931Z,11.50
2023-04-07T06:36:47.862Z,12.60
2023-04-07T06:39:15.895Z,9.93
2023-04-07T06:41:44.123Z,9.20
2023-04-07T06:44:12.163Z,9.80
2023-04-07T06:46:41.730Z,8.93
2023-04-07T06:49:09.808Z,8.93
2023-04-07T06:51:39.054Z,10.47
2023-04-07T06:54:12.774Z,10.17
2023-04-07T06:56:40.891Z,9.97
2023-04-07T06:59:08.829Z,8.63
2023-04-07T07:01:37.895Z,11.77
2023-04-07T07:04:07.054Z,8.73
2023-04-07T07:06:35.122Z,9.13
2023-04-07T07:09:04.668Z,8.70
2023-04-07T07:11:32.575Z,7.13
2023-04-07T07:14:00.528Z,4.60
2023-04-07T07:16:28.998Z,26.43
2023-04-07T07:18:56.911Z,4.43
2023-04-07T07:21:24.809Z,4.20
2023-04-07T07:23:52.697Z,15.03
2023-04-07T07:26:22.132Z,7.03
2023-04-07T07:28:50.468Z,4.73
2023-04-07T07:31:18.785Z,3.73
2023-04-07T07:33:49.224Z,4.80
2023-04-07T07:36:17.517Z,5.80
2023-04-07T07:38:45.400Z,5.43
2023-04-07T07:41:13.372Z,7.47
2023-04-07T07:43:43.046Z,4.93
2023-04-07T07:46:11.049Z,4.87
2023-04-07T07:48:39.013Z,4.60
2023-04-07T07:51:15.760Z,3.33
2023-04-07T07:53:43.656Z,3.53
2023-04-07T07:56:11.819Z,5.77
2023-04-07T07:58:40.044Z,4.03
2023-04-07T08:01:09.413Z,3.40
2023-04-07T08:03:37.380Z,4.07
2023-04-07T08:06:06.522Z,5.93
2023-04-07T08:08:34.380Z,6.47
2023-04-07T08:11:03.775Z,3.30
2023-04-07T08:13:31.756Z,4.40
2023-04-07T08:15:59.704Z,4.83
2023-04-07T08:18:29.101Z,3.77
2023-04-07T08:20:57.615Z,2.60
2023-04-07T08:23:25.994Z,8.07
2023-04-07T08:25:53.862Z,3.33
2023-04-07T08:28:23.161Z,10.97
2023-04-07T08:30:51.306Z,5.10
2023-04-07T08:33:19.182Z,4.50
2023-04-07T08:35:48.710Z,6.03
2023-04-07T08:38:16.712Z,6.73
2023-04-07T08:40:44.676Z,5.47
2023-04-07T08:43:16.335Z,3.47
2023-04-07T08:45:46.839Z,3.07
2023-04-07T08:48:19.018Z,2.93
2023-04-07T08:50:53.296Z,4.27
2023-04-07T08:53:25.771Z,3.50
2023-04-07T08:55:54.635Z,2.93
2023-04-07T08:58:23.560Z,4.43
2023-04-07T09:00:52.772Z,5.77
2023-04-07T09:03:20.981Z,3.53
2023-04-07T09:05:51.482Z,4.80
2023-04-07T09:08:19.377Z,3.37
2023-04-07T09:10:47.582Z,3.57
2023-04-07T09:13:15.808Z,8.33
2023-04-07T09:15:43.690Z,4.53
2023-04-07T09:18:11.614Z,4.23
2023-04-07T09:21:02.470Z,4.63
2023-04-07T09:23:32.462Z,7.30
2023-04-07T09:26:01.859Z,5.33
2023-04-07T09:28:46.111Z,4.93
2023-04-07T09:31:14.264Z,4.13
2023-04-07T09:33:42.244Z,4.23
2023-04-07T09:36:11.661Z,5.27
2023-04-07T09:38:41.282Z,9.30
2023-04-07T09:41:11.574Z,4.90
2023-04-07T09:43:41.689Z,6.00
2023-04-07T09:46:17.478Z,3.70
2023-04-07T09:48:46.678Z,4.13
2023-04-07T09:51:18.647Z,4.23
2023-04-07T09:53:48.985Z,4.77
2023-04-07T09:56:18.440Z,6.03
2023-04-07T09:58:47.976Z,4.80
2023-04-07T10:01:18.096Z,3.73
2023-04-07T10:03:48.438Z,4.60
2023-04-07T10:06:18.158Z,4.03
2023-04-07T10:08:46.297Z,4.37
2023-04-07T10:11:14.501Z,4.87
2023-04-07T10:13:42.975Z,4.87
2023-04-07T10:16:11.311Z,4.13
2023-04-07T10:18:40.471Z,4.37
2023-04-07T10:21:10.735Z,3.70
2023-04-07T10:23:50.251Z,3.80
2023-04-07T10:26:21.029Z,5.37
2023-04-07T10:28:54.795Z,4.27
2023-04-07T10:31:24.428Z,3.73
2023-04-07T10:33:54.229Z,3.60
2023-04-07T10:36:23.142Z,5.03
2023-04-07T10:39:27.559Z,4.07
2023-04-07T10:41:57.232Z,5.77
2023-04-07T10:44:48.334Z,5.17
2023-04-07T10:47:16.345Z,4.67
2023-04-07T10:50:26.085Z,4.90
2023-04-07T10:53:08.415Z,4.00
2023-04-07T10:55:38.062Z,6.03
2023-04-07T10:58:18.349Z,4.43
2023-04-07T11:01:30.786Z,5.77
2023-04-07T11:04:01.301Z,4.90
2023-04-07T11:06:29.566Z,4.30
2023-04-07T11:08:57.493Z,4.17
2023-04-07T11:11:39.872Z,4.83
2023-04-07T11:14:09.160Z,4.20
2023-04-07T11:16:46.953Z,4.20
2023-04-07T11:19:14.832Z,5.70
2023-04-07T11:21:42.804Z,6.57
2023-04-07T11:24:10.870Z,5.30
2023-04-07T11:26:40.561Z,6.30
2023-04-07T11:29:10.510Z,5.13
2023-04-07T11:31:40.132Z,4.83
2023-04-07T11:34:09.013Z,6.53
2023-04-07T11:36:40.693Z,15.60
2023-04-07T11:39:19.961Z,6.80
2023-04-07T11:41:49.179Z,5.70
2023-04-07T11:44:18.543Z,4.47
2023-04-07T11:46:57.109Z,4.77
2023-04-07T11:49:27.897Z,4.40
2023-04-07T11:52:00.407Z,4.30
2023-04-07T11:54:28.428Z,4.90
2023-04-07T11:56:57.690Z,5.43
2023-04-07T11:59:27.396Z,4.70
2023-04-07T12:01:57.660Z,5.33
2023-04-07T12:04:26.224Z,5.60
2023-04-07T12:06:54.348Z,4.70
2023-04-07T12:09:30.529Z,4.60
2023-04-07T12:11:59.059Z,5.35
2023-04-07T12:14:28.796Z,4.43
2023-04-07T12:16:59.230Z,5.65
2023-04-07T12:19:28.130Z,4.97
2023-04-07T12:21:56.171Z,4.82
2023-04-07T12:24:24.401Z,4.90
2023-04-07T12:26:52.404Z,6.88
2023-04-07T12:29:20.968Z,5.28
2023-04-07T12:31:51.309Z,4.18
2023-04-07T12:34:19.794Z,4.83
2023-04-07T12:36:47.740Z,4.47
2023-04-07T12:39:16.800Z,7.18
2023-04-07T12:41:45.915Z,5.07
2023-04-07T12:44:14.005Z,4.90
2023-04-07T12:46:43.194Z,5.07
2023-04-07T12:49:12.474Z,4.65
2023-04-07T12:51:40.499Z,5.03
2023-04-07T12:54:08.644Z,5.10
2023-04-07T12:56:36.717Z,6.47
2023-04-07T12:59:05.062Z,4.67
2023-04-07T13:01:35.518Z,5.77
2023-04-07T13:04:04.009Z,4.87
2023-04-07T13:06:33.709Z,4.77
2023-04-07T13:09:01.675Z,6.93
2023-04-07T13:11:29.578Z,6.40
2023-04-07T13:13:59.203Z,5.10
2023-04-07T13:16:28.552Z,5.70
2023-04-07T13:18:57.323Z,4.73
2023-04-07T13:23:57.565Z,5.33
2023-04-07T13:26:26.246Z,12.00
2023-04-07T13:28:54.159Z,6.97
2023-04-07T13:31:23.788Z,5.20
2023-04-07T13:33:51.869Z,5.40
2023-04-07T13:36:22.559Z,5.60
2023-04-07T13:38:51.096Z,6.20
2023-04-07T13:41:21.527Z,4.37
2023-04-07T13:43:49.787Z,5.67
2023-04-07T13:46:28.114Z,4.97
2023-04-07T13:48:57.150Z,4.60
2023-04-07T13:51:25.246Z,3.77
2023-04-07T13:53:53.299Z,6.53
2023-04-07T13:56:23.810Z,4.33
2023-04-07T13:58:51.821Z,4.80
2023-04-07T14:01:19.825Z,4.93
2023-04-07T14:03:48.076Z,4.40
2023-04-07T14:06:16.751Z,5.47
2023-04-07T14:08:44.633Z,5.33
2023-04-07T14:11:12.588Z,5.37
2023-04-07T14:13:41.931Z,5.30
2023-04-07T14:16:12.795Z,5.17
2023-04-07T14:18:40.800Z,4.90
2023-04-07T14:21:08.643Z,5.20
2023-04-07T14:23:50.928Z,4.80
2023-04-07T14:26:18.938Z,6.83
2023-04-07T14:28:48.799Z,6.10
2023-04-07T14:31:17.656Z,4.27
2023-04-07T14:33:46.758Z,4.70
2023-04-07T14:36:16.048Z,4.47
2023-04-07T14:38:44.554Z,5.47
2023-04-07T14:41:13.264Z,5.63
2023-04-07T14:43:41.301Z,5.43
2023-04-07T14:46:12.205Z,5.27
2023-04-07T14:48:40.222Z,9.77
2023-04-07T14:51:12.881Z,5.43
2023-04-07T14:53:42.035Z,6.90
2023-04-07T14:56:10.095Z,6.03
2023-04-07T14:58:39.118Z,5.70
2023-04-07T15:01:07.605Z,6.50
2023-04-07T15:03:37.210Z,5.93
2023-04-07T15:06:08.872Z,6.07
2023-04-07T15:08:38.432Z,6.27
2023-04-07T15:11:06.806Z,5.80
2023-04-07T15:13:34.756Z,5.63
2023-04-07T15:16:10.632Z,5.53
2023-04-07T15:18:41.479Z,5.23
2023-04-07T15:21:10.273Z,5.30
2023-04-07T15:23:38.976Z,5.10
2023-04-07T15:26:07.520Z,5.07
2023-04-07T15:28:35.378Z,5.50
2023-04-07T15:31:03.500Z,4.73
2023-04-07T15:33:31.384Z,6.17
2023-04-07T15:36:01.412Z,5.37
2023-04-07T15:38:29.898Z,6.50
2023-04-07T15:40:58.051Z,6.57
2023-04-07T15:43:26.057Z,5.37
2023-04-07T15:45:57.047Z,5.63
2023-04-07T15:48:25.167Z,6.07
2023-04-07T15:50:54.936Z,5.80
2023-04-07T15:53:24.321Z,5.77
2023-04-07T15:55:56.119Z,7.03
2023-04-07T15:58:24.087Z,6.10
2023-04-07T16:00:52.509Z,6.87
2023-04-07T16:03:21.866Z,6.27
2023-04-07T16:05:51.187Z,5.50
2023-04-07T16:08:19.235Z,5.90
2023-04-07T16:10:48.502Z,7.90
2023-04-07T16:13:16.522Z,7.50
2023-04-07T16:15:44.492Z,5.57
2023-04-07T16:18:12.793Z,6.47
2023-04-07T16:20:41.012Z,6.37
2023-04-07T16:23:08.910Z,8.80
2023-04-07T16:25:37.144Z,6.83
2023-04-07T16:28:06.460Z,8.27
2023-04-07T16:30:34.361Z,9.03
2023-04-07T16:33:02.485Z,7.10
2023-04-07T16:35:33.678Z,7.30
2023-04-07T16:38:04.651Z,9.63
2023-04-07T16:40:33.346Z,12.83
2023-04-07T16:43:01.382Z,6.37
2023-04-07T16:45:30.682Z,6.67
2023-04-07T16:48:02.443Z,7.33
2023-04-07T16:50:30.660Z,6.97
2023-04-07T16:52:58.615Z,7.73
2023-04-07T16:55:26.579Z,5.70
2023-04-07T16:57:54.604Z,8.17
2023-04-07T17:00:22.725Z,7.00
2023-04-07T17:02:52.124Z,6.40
2023-04-07T17:05:20.239Z,6.10
2023-04-07T17:07:48.887Z,5.90
2023-04-07T17:10:16.909Z,5.33
2023-04-07T17:12:48.407Z,8.57
2023-04-07T17:15:16.456Z,5.30
2023-04-07T17:17:44.895Z,6.10
2023-04-07T17:20:17.551Z,5.77
2023-04-07T17:22:46.616Z,5.27
2023-04-07T17:25:14.605Z,5.03
2023-04-07T17:27:42.554Z,5.37
2023-04-07T17:30:11.045Z,5.63
2023-04-07T17:32:38.978Z,6.73
2023-04-07T17:35:13.018Z,5.67
2023-04-07T17:37:42.380Z,5.77
2023-04-07T17:40:11.133Z,5.87
2023-04-07T17:42:39.946Z,7.33
2023-04-07T17:45:15.125Z,5.87
2023-04-07T17:47:53.155Z,6.37
2023-04-07T17:50:23.199Z,5.00
2023-04-07T17:52:52.575Z,7.60
2023-04-07T17:55:21.192Z,8.60
2023-04-07T17:57:51.619Z,5.37
2023-04-07T18:00:22.431Z,8.33
2023-04-07T18:02:51.316Z,4.97
2023-04-07T18:05:19.989Z,6.33
2023-04-07T18:07:51.608Z,6.57
2023-04-07T18:10:21.957Z,6.60
2023-04-07T18:12:51.052Z,5.63
2023-04-07T18:15:19.128Z,7.07
2023-04-07T18:17:52.795Z,7.97
2023-04-07T18:20:21.183Z,8.27
2023-04-07T18:22:51.734Z,9.37
2023-04-07T18:25:22.164Z,7.47
2023-04-07T18:27:50.133Z,11.10
2023-04-07T18:30:18.046Z,7.90
2023-04-07T18:32:46.352Z,8.23
2023-04-07T18:35:14.373Z,7.63
2023-04-07T18:37:44.112Z,7.13
2023-04-07T18:40:13.136Z,8.70
2023-04-07T18:42:42.720Z,9.47
2023-04-07T18:45:11.535Z,19.73
2023-04-07T18:47:39.750Z,7.03
2023-04-07T18:50:09.200Z,6.70
2023-04-07T18:52:37.236Z,8.13
2023-04-07T18:55:06.119Z,8.53
2023-04-07T18:57:33.995Z,13.60
2023-04-07T19:00:04.624Z,7.57
2023-04-07T19:02:32.789Z,6.03
2023-04-07T19:05:00.895Z,7.20
2023-04-07T19:07:28.732Z,8.97
2023-04-07T19:09:56.681Z,7.47
2023-04-07T19:12:24.629Z,8.27
2023-04-07T19:14:52.506Z,8.67
2023-04-07T19:17:21.879Z,10.97
2023-04-07T19:19:49.776Z,8.87
2023-04-07T19:22:20.363Z,9.00
2023-04-07T19:24:48.320Z,9.90
2023-04-07T19:27:16.748Z,11.63
2023-04-07T19:29:44.654Z,10.00
2023-04-07T19:32:12.641Z,10.60
2023-04-07T19:34:41.974Z,12.47
2023-04-07T19:37:09.796Z,10.10
2023-04-07T19:39:37.675Z,14.23
2023-04-07T19:42:05.772Z,10.03
2023-04-07T19:44:34.382Z,12.30
2023-04-07T19:47:02.278Z,18.97
2023-04-07T19:49:30.299Z,13.13
2023-04-07T19:51:59.858Z,23.00
2023-04-07T19:54:27.937Z,9.87
2023-04-07T19:56:55.844Z,11.20
2023-04-07T19:59:23.763Z,10.63
2023-04-07T20:01:53.260Z,8.13
2023-04-07T20:04:21.235Z,11.87
2023-04-07T20:06:49.177Z,37.93
2023-04-07T20:09:20.475Z,15.80
2023-04-07T20:11:48.347Z,12.33
2023-04-07T20:14:16.225Z,10.50
2023-04-07T20:16:44.467Z,11.57
2023-04-07T20:19:12.383Z,11.27
2023-04-07T20:21:40.502Z,8.70
2023-04-07T20:24:08.979Z,9.63
2023-04-07T20:26:38.280Z,10.30
2023-04-07T20:29:06.570Z,9.83
2023-04-07T20:31:34.526Z,9.20
2023-04-07T20:34:03.454Z,9.17
2023-04-07T20:36:31.394Z,9.00
2023-04-07T20:38:59.273Z,8.67
2023-04-07T20:41:27.151Z,8.13
2023-04-07T20:43:57.074Z,10.23
2023-04-07T20:46:25.226Z,10.83
2023-04-07T20:48:53.168Z,8.27
2023-04-07T20:51:22.208Z,8.27
2023-04-07T20:53:50.140Z,8.47
2023-04-07T20:56:18.616Z,8.57
2023-04-07T20:58:47.790Z,11.20
2023-04-07T21:01:17.197Z,8.70
2023-04-07T21:03:45.169Z,8.57
2023-04-07T21:06:13.225Z,10.10
2023-04-07T21:08:41.121Z,8.13
2023-04-07T21:11:09.066Z,8.87
2023-04-07T21:13:38.416Z,8.40
2023-04-07T21:16:06.962Z,9.20
2023-04-07T21:18:36.496Z,8.33
2023-04-07T21:21:04.420Z,8.03
2023-04-07T21:23:32.405Z,9.20
2023-04-07T21:26:03.794Z,8.20
2023-04-07T21:28:31.714Z,9.80
2023-04-07T21:31:01.257Z,11.17
2023-04-07T21:33:29.311Z,7.90
2023-04-07T21:35:58.712Z,8.17
2023-04-07T21:38:26.659Z,7.60
2023-04-07T21:40:54.925Z,11.13
2023-04-07T21:43:23.588Z,7.53
2023-04-07T21:45:51.551Z,8.03
2023-04-07T21:48:20.847Z,8.13
2023-04-07T21:50:49.008Z,8.80
2023-04-07T21:53:18.846Z,12.03
2023-04-07T21:55:46.809Z,15.10
2023-04-07T21:58:14.947Z,11.50
2023-04-07T22:00:45.248Z,13.43
2023-04-07T22:03:13.270Z,17.70
2023-04-07T22:05:41.302Z,16.67
2023-04-07T22:08:09.348Z,15.63
2023-04-07T22:10:38.793Z,15.77
2023-04-07T22:13:06.738Z,15.73
2023-04-07T22:15:34.628Z,15.50
2023-04-07T22:18:03.667Z,14.73
2023-04-07T22:20:31.576Z,17.70
2023-04-07T22:22:59.539Z,16.13
2023-04-07T22:25:27.486Z,15.80
2023-04-07T22:27:56.933Z,15.83
2023-04-07T22:30:25.588Z,14.03
2023-04-07T22:33:33.935Z,13.53
2023-04-07T22:36:03.403Z,15.30
2023-04-07T22:38:31.579Z,16.47
2023-04-07T22:40:59.450Z,15.43
2023-04-07T22:43:28.786Z,14.73
2023-04-07T22:45:56.702Z,14.93
2023-04-07T22:48:24.567Z,14.33
2023-04-07T22:50:52.484Z,13.93
2023-04-07T22:53:20.485Z,14.30
2023-04-07T22:55:48.373Z,14.80
2023-04-07T22:58:16.270Z,14.27
2023-04-07T23:00:45.636Z,14.00
2023-04-07T23:03:14.945Z,13.20
2023-04-07T23:05:42.910Z,13.17
2023-04-07T23:08:10.833Z,13.07
2023-04-07T23:10:38.750Z,14.00
2023-04-07T23:13:06.669Z,13.40
2023-04-07T23:15:35.848Z,13.33
2023-04-07T23:18:05.255Z,12.90
2023-04-07T23:20:33.167Z,14.30
2023-04-07T23:23:01.002Z,13.57
2023-04-07T23:25:28.981Z,12.97
2023-04-07T23:27:56.930Z,13.40
2023-04-07T23:30:24.875Z,12.10
2023-04-07T23:32:52.928Z,11.77
2023-04-07T23:35:22.283Z,13.53
2023-04-07T23:37:50.310Z,14.03
2023-04-07T23:40:18.400Z,12.27
2023-04-07T23:42:46.323Z,11.97
2023-04-07T23:45:14.297Z,13.37
2023-04-07T23:47:42.175Z,12.63
2023-04-07T23:50:10.639Z,15.43
2023-04-07T23:52:39.864Z,11.60
2023-04-07T23:55:09.748Z,11.93
2023-04-07T23:57:37.613Z,13.27
